MSC Sinfonia — H8XH — position and weather

sailwx.info

Track history (hours):
 
Tides and Currents Weather Stations Pressure Air Temp Water Temp Dewpoint Dewpoint Depression Visibility Wind Speed Wind Dir Waves Ship Positions

MSC Sinfonia

Last reported at 2018-Apr-20 17:01 UTC. Time now 2018-Apr-26 00:18 UTC.
Position S 29°43' E 031°37'.

Length 251 m; draft 6.8 m.

Type: Passenger vessel. MMSI: 356715971.

Date/timePositionNaut miles runAvg speedWind from/ knotsBaromVisibWave heightAir tempDewpointWater temp
2018-Apr-20 17:01S 29°43' E 031°37'116.5
2018-Apr-20 16:59S 29°43' E 031°37'816.3
2018-Apr-20 16:30S 29°46' E 031°28'917.7
2018-Apr-20 16:00S 29°48' E 031°18'918.7
2018-Apr-20 15:30S 29°50' E 031°08'510.8
2018-Apr-20 15:00S 29°53' E 031°02'0 0.6
2018-Apr-20 14:25S 29°52' E 031°02'0 0.0
2018-Apr-20 13:58S 29°52' E 031°02'0 0.0
2018-Apr-20 13:28S 29°52' E 031°02'0 0.0
2018-Apr-20 12:55S 29°52' E 031°02'0 0.0
2018-Apr-20 12:25S 29°52' E 031°02'0 0.0
2018-Apr-20 11:55S 29°52' E 031°02'0 0.0
2018-Apr-20 11:28S 29°52' E 031°02'0 0.0
2018-Apr-20 10:55S 29°52' E 031°02'0 0.0
2018-Apr-20 10:28S 29°52' E 031°02'0 0.0
2018-Apr-20 09:55S 29°52' E 031°02'0 0.0
2018-Apr-20 09:25S 29°52' E 031°02'0 0.0
2018-Apr-20 08:55S 29°52' E 031°02'0 0.0
2018-Apr-20 08:25S 29°52' E 031°02'0 0.0
2018-Apr-20 07:55S 29°52' E 031°02'0 0.0
2018-Apr-20 07:25S 29°52' E 031°02'0 0.0
2018-Apr-20 06:55S 29°52' E 031°02'0 0.0
2018-Apr-20 06:25S 29°52' E 031°02'0 0.0
2018-Apr-20 05:55S 29°52' E 031°02'0 0.0
2018-Apr-20 05:25S 29°52' E 031°02'0 0.0
2018-Apr-20 04:55S 29°52' E 031°02'0 0.0
2018-Apr-20 04:25S 29°52' E 031°02'0 0.0
2018-Apr-20 03:58S 29°52' E 031°02'0 0.0
2018-Apr-20 03:25S 29°52' E 031°02'0 0.3
2018-Apr-20 03:00S 29°52' E 031°02'4 7.6
2018-Apr-20 02:30S 29°50' E 031°05'4 7.7
2018-Apr-20 02:00S 29°49' E 031°10'4 8.3
2018-Apr-20 01:29S 29°48' E 031°15'4 8.0
2018-Apr-20 01:00S 29°47' E 031°19'4 8.0
2018-Apr-20 00:30S 29°44' E 031°22'4 8.0
2018-Apr-20 00:00S 29°42' E 031°26'4 7.8
2018-Apr-19 23:30S 29°39' E 031°29'4 8.0
2018-Apr-19 23:00S 29°36' E 031°32'4 7.9
2018-Apr-19 22:30S 29°33' E 031°35'4 7.5
2018-Apr-19 22:00S 29°31' E 031°38'4 7.0
2018-Apr-19 21:30S 29°29' E 031°41'3 7.1
2018-Apr-19 21:00S 29°26' E 031°44'4 7.6
2018-Apr-19 20:30S 29°23' E 031°47'  
2018-Apr-15 14:15S 29°32' E 031°37'418.7
2018-Apr-15 14:00S 29°35' E 031°34'918.9
2018-Apr-15 13:30S 29°42' E 031°26'918.8
2018-Apr-15 13:00S 29°47' E 031°17'917.3
2018-Apr-15 12:30S 29°50' E 031°08'510.8
2018-Apr-15 12:01S 29°52' E 031°02'0 0.3
2018-Apr-15 11:30S 29°52' E 031°02'0 0.0
2018-Apr-15 11:00S 29°52' E 031°02'0 0.0
2018-Apr-15 10:30S 29°52' E 031°02'0 0.0
2018-Apr-15 10:00S 29°52' E 031°02'0 0.0
2018-Apr-15 09:30S 29°52' E 031°02'0 0.0
2018-Apr-15 08:42S 29°52' E 031°02'0 0.0
2018-Apr-15 08:27S 29°52' E 031°02'0 0.0
2018-Apr-15 07:48S 29°52' E 031°02'0 0.0
2018-Apr-15 07:30S 29°52' E 031°02'0 0.0
2018-Apr-15 06:57S 29°52' E 031°02'0 0.0
2018-Apr-15 06:30S 29°52' E 031°02'0 0.0
2018-Apr-15 06:00S 29°52' E 031°02'0 0.0
2018-Apr-15 05:12S 29°52' E 031°02'0 0.0
2018-Apr-15 05:00S 29°52' E 031°02'0 0.0
2018-Apr-15 04:30S 29°52' E 031°02'0 0.0
2018-Apr-15 04:00S 29°52' E 031°02'0 0.0
2018-Apr-15 03:30S 29°52' E 031°02'0 0.2
2018-Apr-15 03:00S 29°52' E 031°02'4 8.3
2018-Apr-15 02:30S 29°50' E 031°06'5 9.5
2018-Apr-15 02:00S 29°49' E 031°11'5 9.9
2018-Apr-15 01:30S 29°49' E 031°17'5 9.3
2018-Apr-15 01:00S 29°47' E 031°22'4 9.0
2018-Apr-15 00:30S 29°45' E 031°26'4 8.4
2018-Apr-15 00:00S 29°43' E 031°30'4 7.9
2018-Apr-14 23:30S 29°41' E 031°34'4 7.5
2018-Apr-14 23:00S 29°39' E 031°38'3 6.1
2018-Apr-14 22:30S 29°38' E 031°41'4 7.4
2018-Apr-14 22:00S 29°37' E 031°46'4 8.0
2018-Apr-14 21:30S 29°35' E 031°50'17 0.7
2018-Apr-13 21:41S 29°49' E 032°00'2 5.2
2018-Apr-13 21:19S 29°49' E 031°58'2 5.1
2018-Apr-13 20:59S 29°49' E 031°56'2 5.1
2018-Apr-13 20:30S 29°49' E 031°53'3 5.0
2018-Apr-13 19:59S 29°49' E 031°50'2 4.8
2018-Apr-13 19:30S 29°50' E 031°48'2 4.8
2018-Apr-13 19:00S 29°50' E 031°45'3 4.8
2018-Apr-13 18:29S 29°50' E 031°42'3 4.9
2018-Apr-13 17:57S 29°49' E 031°39'2 5.1
2018-Apr-13 17:30S 29°49' E 031°36'2 5.0
2018-Apr-13 17:00S 29°50' E 031°34'3 5.2
2018-Apr-13 16:30S 29°49' E 031°31'3 5.1
2018-Apr-13 16:00S 29°49' E 031°28'3 5.1
2018-Apr-13 15:30S 29°49' E 031°25'3 5.5
2018-Apr-13 15:00S 29°49' E 031°22'3 5.8
2018-Apr-13 14:30S 29°50' E 031°18'3 5.9
2018-Apr-13 14:00S 29°50' E 031°15'3 5.9
2018-Apr-13 13:30S 29°51' E 031°12'3 6.1
2018-Apr-13 13:00S 29°51' E 031°08'4 7.0
2018-Apr-13 12:30S 29°51' E 031°04'2 3.7
2018-Apr-13 11:59S 29°52' E 031°02'0 0.0
2018-Apr-13 11:29S 29°52' E 031°02'0 0.0
2018-Apr-13 10:59S 29°52' E 031°02'0 0.0
2018-Apr-13 10:18S 29°52' E 031°02'0 0.0
2018-Apr-13 10:00S 29°52' E 031°02'0 0.0
2018-Apr-13 09:24S 29°52' E 031°02'0 0.0
2018-Apr-13 08:42S 29°52' E 031°02'0 0.0
2018-Apr-13 08:30S 29°52' E 031°02'0 0.0
2018-Apr-13 08:00S 29°52' E 031°02'0 0.0
2018-Apr-13 07:30S 29°52' E 031°02'0 0.0
2018-Apr-13 07:00S 29°52' E 031°02'0 0.0
2018-Apr-13 06:30S 29°52' E 031°02'0 0.0
2018-Apr-13 05:57S 29°52' E 031°02'0 0.0
2018-Apr-13 05:24S 29°52' E 031°02'0 0.0
2018-Apr-13 05:00S 29°52' E 031°02'0 0.0
2018-Apr-13 04:24S 29°52' E 031°02'0 0.0
2018-Apr-13 03:57S 29°52' E 031°02'0 0.0
2018-Apr-13 03:30S 29°52' E 031°02'0 0.2
2018-Apr-13 03:00S 29°52' E 031°02'4 7.1
2018-Apr-13 02:30S 29°50' E 031°05'510.8
2018-Apr-13 02:00S 29°49' E 031°11'5 9.6
2018-Apr-13 01:30S 29°48' E 031°17'4 9.0
2018-Apr-13 01:00S 29°46' E 031°21'5 9.3
2018-Apr-13 00:30S 29°43' E 031°25'4 8.5
2018-Apr-13 00:00S 29°40' E 031°29'4 8.5
2018-Apr-12 23:30S 29°37' E 031°32'4 8.6
2018-Apr-12 23:00S 29°34' E 031°36'4 8.5
2018-Apr-12 22:30S 29°31' E 031°39'4 8.3
2018-Apr-12 22:00S 29°28' E 031°42'4 8.2
2018-Apr-12 21:30S 29°25' E 031°46'4 8.3
2018-Apr-12 20:59S 29°22' E 031°49'  
Track history (hours):
 
Tides and Currents Weather Stations Pressure Air Temp Water Temp Dewpoint Dewpoint Depression Visibility Wind Speed Wind Dir Waves Ship Positions

MSC Sinfonia

Last reported at 2018-Apr-20 17:01 UTC. Time now 2018-Apr-26 00:18 UTC.
Position S 29°43' E 031°37'.

Length 251 m; draft 6.8 m.

Type: Passenger vessel. MMSI: 356715971.

Date/timePositionNaut miles runAvg speedWind from/ knotsBaromVisibWave heightAir tempDewpointWater temp
2018-Apr-20 17:01S 29°43' E 031°37'116.5
2018-Apr-20 16:59S 29°43' E 031°37'816.3
2018-Apr-20 16:30S 29°46' E 031°28'917.7
2018-Apr-20 16:00S 29°48' E 031°18'918.7
2018-Apr-20 15:30S 29°50' E 031°08'510.8
2018-Apr-20 15:00S 29°53' E 031°02'0 0.6
2018-Apr-20 14:25S 29°52' E 031°02'0 0.0
2018-Apr-20 13:58S 29°52' E 031°02'0 0.0
2018-Apr-20 13:28S 29°52' E 031°02'0 0.0
2018-Apr-20 12:55S 29°52' E 031°02'0 0.0
2018-Apr-20 12:25S 29°52' E 031°02'0 0.0
2018-Apr-20 11:55S 29°52' E 031°02'0 0.0
2018-Apr-20 11:28S 29°52' E 031°02'0 0.0
2018-Apr-20 10:55S 29°52' E 031°02'0 0.0
2018-Apr-20 10:28S 29°52' E 031°02'0 0.0
2018-Apr-20 09:55S 29°52' E 031°02'0 0.0
2018-Apr-20 09:25S 29°52' E 031°02'0 0.0
2018-Apr-20 08:55S 29°52' E 031°02'0 0.0
2018-Apr-20 08:25S 29°52' E 031°02'0 0.0
2018-Apr-20 07:55S 29°52' E 031°02'0 0.0
2018-Apr-20 07:25S 29°52' E 031°02'0 0.0
2018-Apr-20 06:55S 29°52' E 031°02'0 0.0
2018-Apr-20 06:25S 29°52' E 031°02'0 0.0
2018-Apr-20 05:55S 29°52' E 031°02'0 0.0
2018-Apr-20 05:25S 29°52' E 031°02'0 0.0
2018-Apr-20 04:55S 29°52' E 031°02'0 0.0
2018-Apr-20 04:25S 29°52' E 031°02'0 0.0
2018-Apr-20 03:58S 29°52' E 031°02'0 0.0
2018-Apr-20 03:25S 29°52' E 031°02'0 0.3
2018-Apr-20 03:00S 29°52' E 031°02'4 7.6
2018-Apr-20 02:30S 29°50' E 031°05'4 7.7
2018-Apr-20 02:00S 29°49' E 031°10'4 8.3
2018-Apr-20 01:29S 29°48' E 031°15'4 8.0
2018-Apr-20 01:00S 29°47' E 031°19'4 8.0
2018-Apr-20 00:30S 29°44' E 031°22'4 8.0
2018-Apr-20 00:00S 29°42' E 031°26'4 7.8
2018-Apr-19 23:30S 29°39' E 031°29'4 8.0
2018-Apr-19 23:00S 29°36' E 031°32'4 7.9
2018-Apr-19 22:30S 29°33' E 031°35'4 7.5
2018-Apr-19 22:00S 29°31' E 031°38'4 7.0
2018-Apr-19 21:30S 29°29' E 031°41'3 7.1
2018-Apr-19 21:00S 29°26' E 031°44'4 7.6
2018-Apr-19 20:30S 29°23' E 031°47'  
2018-Apr-15 14:15S 29°32' E 031°37'418.7
2018-Apr-15 14:00S 29°35' E 031°34'918.9
2018-Apr-15 13:30S 29°42' E 031°26'918.8
2018-Apr-15 13:00S 29°47' E 031°17'917.3
2018-Apr-15 12:30S 29°50' E 031°08'510.8
2018-Apr-15 12:01S 29°52' E 031°02'0 0.3
2018-Apr-15 11:30S 29°52' E 031°02'0 0.0
2018-Apr-15 11:00S 29°52' E 031°02'0 0.0
2018-Apr-15 10:30S 29°52' E 031°02'0 0.0
2018-Apr-15 10:00S 29°52' E 031°02'0 0.0
2018-Apr-15 09:30S 29°52' E 031°02'0 0.0
2018-Apr-15 08:42S 29°52' E 031°02'0 0.0
2018-Apr-15 08:27S 29°52' E 031°02'0 0.0
2018-Apr-15 07:48S 29°52' E 031°02'0 0.0
2018-Apr-15 07:30S 29°52' E 031°02'0 0.0
2018-Apr-15 06:57S 29°52' E 031°02'0 0.0
2018-Apr-15 06:30S 29°52' E 031°02'0 0.0
2018-Apr-15 06:00S 29°52' E 031°02'0 0.0
2018-Apr-15 05:12S 29°52' E 031°02'0 0.0
2018-Apr-15 05:00S 29°52' E 031°02'0 0.0
2018-Apr-15 04:30S 29°52' E 031°02'0 0.0
2018-Apr-15 04:00S 29°52' E 031°02'0 0.0
2018-Apr-15 03:30S 29°52' E 031°02'0 0.2
2018-Apr-15 03:00S 29°52' E 031°02'4 8.3
2018-Apr-15 02:30S 29°50' E 031°06'5 9.5
2018-Apr-15 02:00S 29°49' E 031°11'5 9.9
2018-Apr-15 01:30S 29°49' E 031°17'5 9.3
2018-Apr-15 01:00S 29°47' E 031°22'4 9.0
2018-Apr-15 00:30S 29°45' E 031°26'4 8.4
2018-Apr-15 00:00S 29°43' E 031°30'4 7.9
2018-Apr-14 23:30S 29°41' E 031°34'4 7.5
2018-Apr-14 23:00S 29°39' E 031°38'3 6.1
2018-Apr-14 22:30S 29°38' E 031°41'4 7.4
2018-Apr-14 22:00S 29°37' E 031°46'4 8.0
2018-Apr-14 21:30S 29°35' E 031°50'17 0.7
2018-Apr-13 21:41S 29°49' E 032°00'2 5.2
2018-Apr-13 21:19S 29°49' E 031°58'2 5.1
2018-Apr-13 20:59S 29°49' E 031°56'2 5.1
2018-Apr-13 20:30S 29°49' E 031°53'3 5.0
2018-Apr-13 19:59S 29°49' E 031°50'2 4.8
2018-Apr-13 19:30S 29°50' E 031°48'2 4.8
2018-Apr-13 19:00S 29°50' E 031°45'3 4.8
2018-Apr-13 18:29S 29°50' E 031°42'3 4.9
2018-Apr-13 17:57S 29°49' E 031°39'2 5.1
2018-Apr-13 17:30S 29°49' E 031°36'2 5.0
2018-Apr-13 17:00S 29°50' E 031°34'3 5.2
2018-Apr-13 16:30S 29°49' E 031°31'3 5.1
2018-Apr-13 16:00S 29°49' E 031°28'3 5.1
2018-Apr-13 15:30S 29°49' E 031°25'3 5.5
2018-Apr-13 15:00S 29°49' E 031°22'3 5.8
2018-Apr-13 14:30S 29°50' E 031°18'3 5.9
2018-Apr-13 14:00S 29°50' E 031°15'3 5.9
2018-Apr-13 13:30S 29°51' E 031°12'3 6.1
2018-Apr-13 13:00S 29°51' E 031°08'4 7.0
2018-Apr-13 12:30S 29°51' E 031°04'2 3.7
2018-Apr-13 11:59S 29°52' E 031°02'0 0.0
2018-Apr-13 11:29S 29°52' E 031°02'0 0.0
2018-Apr-13 10:59S 29°52' E 031°02'0 0.0
2018-Apr-13 10:18S 29°52' E 031°02'0 0.0
2018-Apr-13 10:00S 29°52' E 031°02'0 0.0
2018-Apr-13 09:24S 29°52' E 031°02'0 0.0
2018-Apr-13 08:42S 29°52' E 031°02'0 0.0
2018-Apr-13 08:30S 29°52' E 031°02'0 0.0
2018-Apr-13 08:00S 29°52' E 031°02'0 0.0
2018-Apr-13 07:30S 29°52' E 031°02'0 0.0
2018-Apr-13 07:00S 29°52' E 031°02'0 0.0
2018-Apr-13 06:30S 29°52' E 031°02'0 0.0
2018-Apr-13 05:57S 29°52' E 031°02'0 0.0
2018-Apr-13 05:24S 29°52' E 031°02'0 0.0
2018-Apr-13 05:00S 29°52' E 031°02'0 0.0
2018-Apr-13 04:24S 29°52' E 031°02'0 0.0
2018-Apr-13 03:57S 29°52' E 031°02'0 0.0
2018-Apr-13 03:30S 29°52' E 031°02'0 0.2
2018-Apr-13 03:00S 29°52' E 031°02'4 7.1
2018-Apr-13 02:30S 29°50' E 031°05'510.8
2018-Apr-13 02:00S 29°49' E 031°11'5 9.6
2018-Apr-13 01:30S 29°48' E 031°17'4 9.0
2018-Apr-13 01:00S 29°46' E 031°21'5 9.3
2018-Apr-13 00:30S 29°43' E 031°25'4 8.5
2018-Apr-13 00:00S 29°40' E 031°29'4 8.5
2018-Apr-12 23:30S 29°37' E 031°32'4 8.6
2018-Apr-12 23:00S 29°34' E 031°36'4 8.5
2018-Apr-12 22:30S 29°31' E 031°39'4 8.3
2018-Apr-12 22:00S 29°28' E 031°42'4 8.2
2018-Apr-12 21:30S 29°25' E 031°46'4 8.3
2018-Apr-12 20:59S 29°22' E 031°49'  

Dump ship's entire track history